sensor_id;sensor_type;location;lat;lon;timestamp;P1;durP1;ratioP1;P2;durP2;ratioP2
56183;SDS011;42086;53.170;6.980;2023-01-01T00:01:10;29.75;;;13.63;;
56183;SDS011;42086;53.170;6.980;2023-01-01T00:03:38;24.67;;;11.30;;
56183;SDS011;42086;53.170;6.980;2023-01-01T00:06:05;22.85;;;11.07;;
56183;SDS011;42086;53.170;6.980;2023-01-01T00:08:36;19.33;;;10.52;;
56183;SDS011;42086;53.170;6.980;2023-01-01T00:11:03;21.52;;;11.48;;
56183;SDS011;42086;53.170;6.980;2023-01-01T00:13:30;21.27;;;10.60;;
56183;SDS011;42086;53.170;6.980;2023-01-01T00:16:02;21.70;;;10.98;;
56183;SDS011;42086;53.170;6.980;2023-01-01T00:18:34;22.27;;;10.00;;
56183;SDS011;42086;53.170;6.980;2023-01-01T00:21:04;25.83;;;11.45;;
56183;SDS011;42086;53.170;6.980;2023-01-01T00:23:32;18.27;;;9.52;;
56183;SDS011;42086;53.170;6.980;2023-01-01T00:25:59;19.02;;;9.55;;
56183;SDS011;42086;53.170;6.980;2023-01-01T00:28:25;25.67;;;10.90;;
56183;SDS011;42086;53.170;6.980;2023-01-01T00:30:51;31.70;;;13.20;;
56183;SDS011;42086;53.170;6.980;2023-01-01T00:33:17;33.33;;;14.32;;
56183;SDS011;42086;53.170;6.980;2023-01-01T00:35:42;22.63;;;11.88;;
56183;SDS011;42086;53.170;6.980;2023-01-01T00:38:08;22.17;;;10.68;;
56183;SDS011;42086;53.170;6.980;2023-01-01T00:40:34;25.73;;;13.48;;
56183;SDS011;42086;53.170;6.980;2023-01-01T00:42:59;30.02;;;13.80;;
56183;SDS011;42086;53.170;6.980;2023-01-01T00:45:25;31.17;;;16.33;;
56183;SDS011;42086;53.170;6.980;2023-01-01T00:47:51;30.90;;;16.60;;
56183;SDS011;42086;53.170;6.980;2023-01-01T00:50:18;33.10;;;17.17;;
56183;SDS011;42086;53.170;6.980;2023-01-01T00:52:44;36.95;;;20.55;;
56183;SDS011;42086;53.170;6.980;2023-01-01T00:55:11;38.90;;;20.77;;
56183;SDS011;42086;53.170;6.980;2023-01-01T00:57:36;47.10;;;25.48;;
56183;SDS011;42086;53.170;6.980;2023-01-01T01:00:02;32.55;;;16.95;;
56183;SDS011;42086;53.170;6.980;2023-01-01T01:02:29;38.40;;;23.80;;
56183;SDS011;42086;53.170;6.980;2023-01-01T01:04:55;48.95;;;27.70;;
56183;SDS011;42086;53.170;6.980;2023-01-01T01:07:21;54.65;;;28.75;;
56183;SDS011;42086;53.170;6.980;2023-01-01T01:09:46;51.17;;;28.52;;
56183;SDS011;42086;53.170;6.980;2023-01-01T01:12:12;44.80;;;21.10;;
56183;SDS011;42086;53.170;6.980;2023-01-01T01:14:38;41.13;;;24.13;;
56183;SDS011;42086;53.170;6.980;2023-01-01T01:17:03;45.10;;;26.17;;
56183;SDS011;42086;53.170;6.980;2023-01-01T01:19:29;41.40;;;21.67;;
56183;SDS011;42086;53.170;6.980;2023-01-01T01:21:55;46.55;;;26.88;;
56183;SDS011;42086;53.170;6.980;2023-01-01T01:24:20;40.40;;;22.90;;
56183;SDS011;42086;53.170;6.980;2023-01-01T01:26:46;38.53;;;21.02;;
56183;SDS011;42086;53.170;6.980;2023-01-01T01:29:12;41.22;;;22.45;;
56183;SDS011;42086;53.170;6.980;2023-01-01T01:31:38;41.70;;;21.25;;
56183;SDS011;42086;53.170;6.980;2023-01-01T01:34:04;41.28;;;21.95;;
56183;SDS011;42086;53.170;6.980;2023-01-01T01:36:30;45.00;;;24.88;;
56183;SDS011;42086;53.170;6.980;2023-01-01T01:38:56;44.08;;;22.15;;
56183;SDS011;42086;53.170;6.980;2023-01-01T01:41:23;33.00;;;17.38;;
56183;SDS011;42086;53.170;6.980;2023-01-01T01:43:52;36.50;;;20.02;;
56183;SDS011;42086;53.170;6.980;2023-01-01T01:46:24;40.00;;;21.77;;
56183;SDS011;42086;53.170;6.980;2023-01-01T01:49:00;45.78;;;24.35;;
56183;SDS011;42086;53.170;6.980;2023-01-01T01:51:33;39.15;;;22.20;;
56183;SDS011;42086;53.170;6.980;2023-01-01T01:54:04;43.92;;;28.23;;
56183;SDS011;42086;53.170;6.980;2023-01-01T01:56:39;55.67;;;30.17;;
56183;SDS011;42086;53.170;6.980;2023-01-01T01:59:25;49.70;;;26.85;;
56183;SDS011;42086;53.170;6.980;2023-01-01T02:01:54;51.13;;;27.60;;
56183;SDS011;42086;53.170;6.980;2023-01-01T02:04:20;41.40;;;21.85;;
56183;SDS011;42086;53.170;6.980;2023-01-01T02:06:46;55.33;;;31.98;;
56183;SDS011;42086;53.170;6.980;2023-01-01T02:09:12;42.33;;;23.90;;
56183;SDS011;42086;53.170;6.980;2023-01-01T02:11:38;50.08;;;27.65;;
56183;SDS011;42086;53.170;6.980;2023-01-01T02:14:04;48.15;;;24.38;;
56183;SDS011;42086;53.170;6.980;2023-01-01T02:16:38;39.97;;;21.95;;
56183;SDS011;42086;53.170;6.980;2023-01-01T02:30:27;53.83;;;28.25;;
56183;SDS011;42086;53.170;6.980;2023-01-01T02:32:59;39.25;;;22.15;;
56183;SDS011;42086;53.170;6.980;2023-01-01T02:35:29;36.85;;;19.98;;
56183;SDS011;42086;53.170;6.980;2023-01-01T02:38:08;41.20;;;21.77;;
56183;SDS011;42086;53.170;6.980;2023-01-01T02:40:50;31.05;;;18.33;;
56183;SDS011;42086;53.170;6.980;2023-01-01T02:43:20;43.35;;;21.85;;
56183;SDS011;42086;53.170;6.980;2023-01-01T02:45:45;35.00;;;21.38;;
56183;SDS011;42086;53.170;6.980;2023-01-01T02:51:12;31.77;;;15.40;;
56183;SDS011;42086;53.170;6.980;2023-01-01T02:53:40;34.40;;;18.48;;
56183;SDS011;42086;53.170;6.980;2023-01-01T03:02:03;29.48;;;13.25;;
56183;SDS011;42086;53.170;6.980;2023-01-01T03:05:14;30.90;;;14.35;;
56183;SDS011;42086;53.170;6.980;2023-01-01T03:08:20;24.02;;;11.18;;
56183;SDS011;42086;53.170;6.980;2023-01-01T03:10:45;23.48;;;11.45;;
56183;SDS011;42086;53.170;6.980;2023-01-01T03:13:25;21.48;;;11.15;;
56183;SDS011;42086;53.170;6.980;2023-01-01T03:18:22;25.88;;;9.98;;
56183;SDS011;42086;53.170;6.980;2023-01-01T03:20:53;17.98;;;8.55;;
56183;SDS011;42086;53.170;6.980;2023-01-01T03:23:25;18.15;;;9.63;;
56183;SDS011;42086;53.170;6.980;2023-01-01T03:25:58;23.17;;;8.82;;
56183;SDS011;42086;53.170;6.980;2023-01-01T03:28:31;17.80;;;8.15;;
56183;SDS011;42086;53.170;6.980;2023-01-01T03:31:00;18.15;;;9.35;;
56183;SDS011;42086;53.170;6.980;2023-01-01T03:46:52;14.27;;;5.93;;
56183;SDS011;42086;53.170;6.980;2023-01-01T03:49:18;13.40;;;5.45;;
56183;SDS011;42086;53.170;6.980;2023-01-01T03:51:53;16.88;;;5.28;;
56183;SDS011;42086;53.170;6.980;2023-01-01T03:57:25;12.82;;;4.63;;
56183;SDS011;42086;53.170;6.980;2023-01-01T04:00:17;14.27;;;5.20;;
56183;SDS011;42086;53.170;6.980;2023-01-01T04:02:58;15.82;;;4.90;;
56183;SDS011;42086;53.170;6.980;2023-01-01T04:05:28;15.13;;;4.53;;
56183;SDS011;42086;53.170;6.980;2023-01-01T04:07:59;12.82;;;5.75;;
56183;SDS011;42086;53.170;6.980;2023-01-01T04:10:27;21.33;;;6.13;;
56183;SDS011;42086;53.170;6.980;2023-01-01T04:12:55;12.48;;;5.32;;
56183;SDS011;42086;53.170;6.980;2023-01-01T04:15:23;13.57;;;6.07;;
56183;SDS011;42086;53.170;6.980;2023-01-01T04:17:51;11.85;;;5.25;;
56183;SDS011;42086;53.170;6.980;2023-01-01T04:20:18;16.00;;;6.38;;
56183;SDS011;42086;53.170;6.980;2023-01-01T04:22:44;21.33;;;5.82;;
56183;SDS011;42086;53.170;6.980;2023-01-01T04:25:10;18.92;;;6.05;;
56183;SDS011;42086;53.170;6.980;2023-01-01T04:27:36;16.33;;;5.53;;
56183;SDS011;42086;53.170;6.980;2023-01-01T04:30:03;13.52;;;5.97;;
56183;SDS011;42086;53.170;6.980;2023-01-01T04:32:31;17.00;;;6.90;;
56183;SDS011;42086;53.170;6.980;2023-01-01T04:34:56;14.02;;;7.30;;
56183;SDS011;42086;53.170;6.980;2023-01-01T04:37:22;13.23;;;6.57;;
56183;SDS011;42086;53.170;6.980;2023-01-01T04:39:48;16.15;;;5.80;;
56183;SDS011;42086;53.170;6.980;2023-01-01T04:42:14;12.35;;;5.43;;
56183;SDS011;42086;53.170;6.980;2023-01-01T04:44:39;16.33;;;6.15;;
56183;SDS011;42086;53.170;6.980;2023-01-01T04:47:05;16.23;;;5.95;;
56183;SDS011;42086;53.170;6.980;2023-01-01T04:49:31;12.98;;;4.95;;
56183;SDS011;42086;53.170;6.980;2023-01-01T04:51:57;13.30;;;5.18;;
56183;SDS011;42086;53.170;6.980;2023-01-01T04:54:22;19.83;;;6.35;;
56183;SDS011;42086;53.170;6.980;2023-01-01T04:56:48;12.23;;;4.72;;
56183;SDS011;42086;53.170;6.980;2023-01-01T04:59:14;10.25;;;4.70;;
56183;SDS011;42086;53.170;6.980;2023-01-01T05:01:39;17.23;;;6.10;;
56183;SDS011;42086;53.170;6.980;2023-01-01T05:04:05;10.63;;;5.20;;
56183;SDS011;42086;53.170;6.980;2023-01-01T05:06:31;17.80;;;6.28;;
56183;SDS011;42086;53.170;6.980;2023-01-01T05:08:57;14.63;;;5.22;;
56183;SDS011;42086;53.170;6.980;2023-01-01T05:11:27;11.60;;;4.45;;
56183;SDS011;42086;53.170;6.980;2023-01-01T05:13:56;19.05;;;4.90;;
56183;SDS011;42086;53.170;6.980;2023-01-01T05:16:24;7.43;;;3.28;;
56183;SDS011;42086;53.170;6.980;2023-01-01T05:18:52;11.43;;;3.10;;
56183;SDS011;42086;53.170;6.980;2023-01-01T05:21:20;8.60;;;2.67;;
56183;SDS011;42086;53.170;6.980;2023-01-01T05:23:52;9.25;;;3.30;;
56183;SDS011;42086;53.170;6.980;2023-01-01T05:26:21;7.78;;;2.70;;
56183;SDS011;42086;53.170;6.980;2023-01-01T05:28:48;9.63;;;2.97;;
56183;SDS011;42086;53.170;6.980;2023-01-01T05:31:16;9.57;;;2.72;;
56183;SDS011;42086;53.170;6.980;2023-01-01T05:33:43;6.43;;;2.28;;
56183;SDS011;42086;53.170;6.980;2023-01-01T05:36:31;8.70;;;2.75;;
56183;SDS011;42086;53.170;6.980;2023-01-01T05:39:02;8.40;;;2.90;;
56183;SDS011;42086;53.170;6.980;2023-01-01T05:41:29;9.98;;;3.10;;
56183;SDS011;42086;53.170;6.980;2023-01-01T05:43:55;11.18;;;3.13;;
56183;SDS011;42086;53.170;6.980;2023-01-01T05:46:22;11.15;;;3.33;;
56183;SDS011;42086;53.170;6.980;2023-01-01T05:48:49;5.53;;;2.50;;
56183;SDS011;42086;53.170;6.980;2023-01-01T05:51:17;9.50;;;2.40;;
56183;SDS011;42086;53.170;6.980;2023-01-01T05:53:45;7.72;;;2.63;;
56183;SDS011;42086;53.170;6.980;2023-01-01T05:56:11;8.85;;;2.58;;
56183;SDS011;42086;53.170;6.980;2023-01-01T05:58:37;6.47;;;1.90;;
56183;SDS011;42086;53.170;6.980;2023-01-01T06:01:07;7.13;;;1.88;;
56183;SDS011;42086;53.170;6.980;2023-01-01T06:03:38;5.05;;;1.70;;
56183;SDS011;42086;53.170;6.980;2023-01-01T06:06:07;5.22;;;1.92;;
56183;SDS011;42086;53.170;6.980;2023-01-01T06:08:34;7.88;;;2.03;;
56183;SDS011;42086;53.170;6.980;2023-01-01T06:11:01;5.38;;;2.35;;
56183;SDS011;42086;53.170;6.980;2023-01-01T06:13:28;4.63;;;1.65;;
56183;SDS011;42086;53.170;6.980;2023-01-01T06:15:55;3.80;;;1.58;;
56183;SDS011;42086;53.170;6.980;2023-01-01T06:18:22;4.65;;;1.70;;
56183;SDS011;42086;53.170;6.980;2023-01-01T06:20:48;7.50;;;1.90;;
56183;SDS011;42086;53.170;6.980;2023-01-01T06:23:15;6.13;;;1.52;;
56183;SDS011;42086;53.170;6.980;2023-01-01T06:25:41;6.10;;;1.58;;
56183;SDS011;42086;53.170;6.980;2023-01-01T06:28:06;3.92;;;1.30;;
56183;SDS011;42086;53.170;6.980;2023-01-01T06:30:32;4.65;;;1.40;;
56183;SDS011;42086;53.170;6.980;2023-01-01T06:33:01;6.57;;;1.60;;
56183;SDS011;42086;53.170;6.980;2023-01-01T06:35:28;4.00;;;1.40;;
56183;SDS011;42086;53.170;6.980;2023-01-01T06:37:53;8.00;;;1.65;;
56183;SDS011;42086;53.170;6.980;2023-01-01T06:40:19;9.38;;;1.48;;
56183;SDS011;42086;53.170;6.980;2023-01-01T06:42:45;5.90;;;1.30;;
56183;SDS011;42086;53.170;6.980;2023-01-01T06:45:10;6.32;;;1.40;;
56183;SDS011;42086;53.170;6.980;2023-01-01T06:47:37;4.72;;;1.10;;
56183;SDS011;42086;53.170;6.980;2023-01-01T06:50:03;2.53;;;1.30;;
56183;SDS011;42086;53.170;6.980;2023-01-01T06:52:30;4.47;;;1.50;;
56183;SDS011;42086;53.170;6.980;2023-01-01T06:54:56;3.63;;;1.17;;
56183;SDS011;42086;53.170;6.980;2023-01-01T06:57:22;4.97;;;1.00;;
56183;SDS011;42086;53.170;6.980;2023-01-01T06:59:48;3.85;;;0.90;;
56183;SDS011;42086;53.170;6.980;2023-01-01T07:02:14;5.38;;;1.05;;
56183;SDS011;42086;53.170;6.980;2023-01-01T07:04:40;4.93;;;1.15;;
56183;SDS011;42086;53.170;6.980;2023-01-01T07:07:06;3.97;;;0.77;;
56183;SDS011;42086;53.170;6.980;2023-01-01T07:09:32;4.93;;;1.10;;
56183;SDS011;42086;53.170;6.980;2023-01-01T07:11:57;5.82;;;1.30;;
56183;SDS011;42086;53.170;6.980;2023-01-01T07:14:23;5.07;;;1.02;;
56183;SDS011;42086;53.170;6.980;2023-01-01T07:16:49;2.55;;;0.60;;
56183;SDS011;42086;53.170;6.980;2023-01-01T07:19:14;5.80;;;1.13;;
56183;SDS011;42086;53.170;6.980;2023-01-01T07:24:11;4.10;;;1.02;;
56183;SDS011;42086;53.170;6.980;2023-01-01T07:26:38;5.22;;;1.00;;
56183;SDS011;42086;53.170;6.980;2023-01-01T07:29:05;4.13;;;1.15;;
56183;SDS011;42086;53.170;6.980;2023-01-01T07:31:33;5.38;;;1.00;;
56183;SDS011;42086;53.170;6.980;2023-01-01T07:33:59;6.53;;;1.20;;
56183;SDS011;42086;53.170;6.980;2023-01-01T07:36:25;6.97;;;1.50;;
56183;SDS011;42086;53.170;6.980;2023-01-01T07:38:51;11.85;;;1.40;;
56183;SDS011;42086;53.170;6.980;2023-01-01T07:41:16;10.45;;;1.50;;
56183;SDS011;42086;53.170;6.980;2023-01-01T07:43:42;10.77;;;1.17;;
56183;SDS011;42086;53.170;6.980;2023-01-01T07:46:09;12.38;;;1.95;;
56183;SDS011;42086;53.170;6.980;2023-01-01T07:48:36;10.25;;;1.65;;
56183;SDS011;42086;53.170;6.980;2023-01-01T07:51:02;7.28;;;1.20;;
56183;SDS011;42086;53.170;6.980;2023-01-01T07:53:28;5.55;;;1.20;;
56183;SDS011;42086;53.170;6.980;2023-01-01T07:55:54;6.38;;;1.15;;
56183;SDS011;42086;53.170;6.980;2023-01-01T07:58:19;4.30;;;1.20;;
56183;SDS011;42086;53.170;6.980;2023-01-01T08:00:47;10.20;;;1.10;;
56183;SDS011;42086;53.170;6.980;2023-01-01T08:03:13;6.80;;;1.30;;
56183;SDS011;42086;53.170;6.980;2023-01-01T08:05:39;8.30;;;1.40;;
56183;SDS011;42086;53.170;6.980;2023-01-01T08:08:05;6.10;;;1.35;;
56183;SDS011;42086;53.170;6.980;2023-01-01T08:10:31;11.60;;;1.85;;
56183;SDS011;42086;53.170;6.980;2023-01-01T08:13:00;9.90;;;1.40;;
56183;SDS011;42086;53.170;6.980;2023-01-01T08:15:28;7.10;;;1.55;;
56183;SDS011;42086;53.170;6.980;2023-01-01T08:17:55;6.72;;;1.63;;
56183;SDS011;42086;53.170;6.980;2023-01-01T08:20:21;9.98;;;1.63;;
56183;SDS011;42086;53.170;6.980;2023-01-01T08:22:47;11.35;;;1.60;;
56183;SDS011;42086;53.170;6.980;2023-01-01T08:25:13;6.47;;;1.65;;
56183;SDS011;42086;53.170;6.980;2023-01-01T08:27:38;7.32;;;1.60;;
56183;SDS011;42086;53.170;6.980;2023-01-01T08:30:04;6.22;;;1.27;;
56183;SDS011;42086;53.170;6.980;2023-01-01T08:32:30;9.75;;;1.55;;
56183;SDS011;42086;53.170;6.980;2023-01-01T08:34:56;10.23;;;1.75;;
56183;SDS011;42086;53.170;6.980;2023-01-01T08:37:22;12.93;;;2.03;;
56183;SDS011;42086;53.170;6.980;2023-01-01T08:39:49;8.27;;;1.55;;
56183;SDS011;42086;53.170;6.980;2023-01-01T08:42:15;15.23;;;2.67;;
56183;SDS011;42086;53.170;6.980;2023-01-01T08:44:41;11.13;;;1.83;;
56183;SDS011;42086;53.170;6.980;2023-01-01T08:47:14;7.05;;;1.40;;
56183;SDS011;42086;53.170;6.980;2023-01-01T08:49:47;8.98;;;1.70;;
56183;SDS011;42086;53.170;6.980;2023-01-01T08:52:13;5.50;;;1.63;;
56183;SDS011;42086;53.170;6.980;2023-01-01T08:54:39;11.75;;;2.67;;
56183;SDS011;42086;53.170;6.980;2023-01-01T08:57:05;10.50;;;1.85;;
56183;SDS011;42086;53.170;6.980;2023-01-01T08:59:31;7.78;;;1.40;;
56183;SDS011;42086;53.170;6.980;2023-01-01T09:01:57;9.15;;;1.45;;
56183;SDS011;42086;53.170;6.980;2023-01-01T09:04:24;12.05;;;2.05;;
56183;SDS011;42086;53.170;6.980;2023-01-01T09:06:50;10.63;;;1.63;;
56183;SDS011;42086;53.170;6.980;2023-01-01T09:09:15;10.23;;;1.73;;
56183;SDS011;42086;53.170;6.980;2023-01-01T09:11:49;10.80;;;1.88;;
56183;SDS011;42086;53.170;6.980;2023-01-01T09:14:18;10.90;;;1.63;;
56183;SDS011;42086;53.170;6.980;2023-01-01T09:16:44;12.23;;;1.63;;
56183;SDS011;42086;53.170;6.980;2023-01-01T09:19:11;9.40;;;1.50;;
56183;SDS011;42086;53.170;6.980;2023-01-01T09:21:37;13.90;;;2.10;;
56183;SDS011;42086;53.170;6.980;2023-01-01T09:24:03;13.00;;;2.03;;
56183;SDS011;42086;53.170;6.980;2023-01-01T09:30:09;23.90;;;5.97;;
56183;SDS011;42086;53.170;6.980;2023-01-01T09:32:35;8.00;;;1.73;;
56183;SDS011;42086;53.170;6.980;2023-01-01T09:35:01;10.05;;;1.63;;
56183;SDS011;42086;53.170;6.980;2023-01-01T09:37:27;16.63;;;2.13;;
56183;SDS011;42086;53.170;6.980;2023-01-01T09:39:53;11.57;;;2.30;;
56183;SDS011;42086;53.170;6.980;2023-01-01T09:47:50;13.93;;;2.10;;
56183;SDS011;42086;53.170;6.980;2023-01-01T09:50:36;12.18;;;1.90;;
56183;SDS011;42086;53.170;6.980;2023-01-01T09:53:39;10.45;;;2.03;;
56183;SDS011;42086;53.170;6.980;2023-01-01T09:56:02;10.38;;;1.88;;
56183;SDS011;42086;53.170;6.980;2023-01-01T09:58:32;10.27;;;2.25;;
56183;SDS011;42086;53.170;6.980;2023-01-01T10:07:11;7.03;;;1.23;;
56183;SDS011;42086;53.170;6.980;2023-01-01T10:12:53;8.75;;;2.00;;
56183;SDS011;42086;53.170;6.980;2023-01-01T10:15:35;16.08;;;2.03;;
56183;SDS011;42086;53.170;6.980;2023-01-01T10:18:05;8.15;;;1.58;;
56183;SDS011;42086;53.170;6.980;2023-01-01T10:20:45;9.77;;;1.80;;
56183;SDS011;42086;53.170;6.980;2023-01-01T10:23:34;12.07;;;2.00;;
56183;SDS011;42086;53.170;6.980;2023-01-01T10:26:17;9.35;;;1.98;;
56183;SDS011;42086;53.170;6.980;2023-01-01T10:31:35;13.63;;;2.20;;
56183;SDS011;42086;53.170;6.980;2023-01-01T10:34:27;13.68;;;2.38;;
56183;SDS011;42086;53.170;6.980;2023-01-01T10:36:54;11.57;;;1.92;;
56183;SDS011;42086;53.170;6.980;2023-01-01T10:39:21;14.00;;;1.90;;
56183;SDS011;42086;53.170;6.980;2023-01-01T10:41:48;4.55;;;1.25;;
56183;SDS011;42086;53.170;6.980;2023-01-01T10:44:20;8.68;;;1.65;;
56183;SDS011;42086;53.170;6.980;2023-01-01T10:46:55;12.15;;;2.33;;
56183;SDS011;42086;53.170;6.980;2023-01-01T10:49:23;9.85;;;1.50;;
56183;SDS011;42086;53.170;6.980;2023-01-01T10:51:49;10.57;;;1.60;;
56183;SDS011;42086;53.170;6.980;2023-01-01T10:59:59;8.95;;;1.65;;
56183;SDS011;42086;53.170;6.980;2023-01-01T11:02:35;10.25;;;1.98;;
56183;SDS011;42086;53.170;6.980;2023-01-01T11:05:11;7.57;;;1.45;;
56183;SDS011;42086;53.170;6.980;2023-01-01T11:07:37;8.70;;;1.55;;
56183;SDS011;42086;53.170;6.980;2023-01-01T11:10:06;11.85;;;1.88;;
56183;SDS011;42086;53.170;6.980;2023-01-01T11:12:42;9.68;;;1.90;;
56183;SDS011;42086;53.170;6.980;2023-01-01T11:15:19;14.05;;;1.90;;
56183;SDS011;42086;53.170;6.980;2023-01-01T11:17:47;9.85;;;1.88;;
56183;SDS011;42086;53.170;6.980;2023-01-01T11:20:19;8.13;;;1.38;;
56183;SDS011;42086;53.170;6.980;2023-01-01T11:22:48;8.13;;;1.80;;
56183;SDS011;42086;53.170;6.980;2023-01-01T11:27:42;8.15;;;1.48;;
56183;SDS011;42086;53.170;6.980;2023-01-01T11:30:24;8.93;;;1.65;;
56183;SDS011;42086;53.170;6.980;2023-01-01T11:32:53;11.88;;;1.50;;
56183;SDS011;42086;53.170;6.980;2023-01-01T11:35:29;8.65;;;1.15;;
56183;SDS011;42086;53.170;6.980;2023-01-01T11:37:57;7.88;;;2.13;;
56183;SDS011;42086;53.170;6.980;2023-01-01T11:40:34;14.45;;;4.32;;
56183;SDS011;42086;53.170;6.980;2023-01-01T11:43:02;7.72;;;2.35;;
56183;SDS011;42086;53.170;6.980;2023-01-01T11:45:31;9.02;;;1.42;;
56183;SDS011;42086;53.170;6.980;2023-01-01T11:48:10;7.40;;;1.13;;
56183;SDS011;42086;53.170;6.980;2023-01-01T11:50:41;11.40;;;1.45;;
56183;SDS011;42086;53.170;6.980;2023-01-01T12:00:53;10.98;;;2.63;;
56183;SDS011;42086;53.170;6.980;2023-01-01T12:03:27;8.23;;;1.63;;
56183;SDS011;42086;53.170;6.980;2023-01-01T12:09:14;8.07;;;1.67;;
56183;SDS011;42086;53.170;6.980;2023-01-01T12:14:40;10.43;;;1.90;;
56183;SDS011;42086;53.170;6.980;2023-01-01T12:17:21;12.23;;;1.55;;
56183;SDS011;42086;53.170;6.980;2023-01-01T12:22:58;16.00;;;2.08;;
56183;SDS011;42086;53.170;6.980;2023-01-01T12:25:28;13.20;;;1.90;;
56183;SDS011;42086;53.170;6.980;2023-01-01T12:31:09;15.70;;;2.20;;
56183;SDS011;42086;53.170;6.980;2023-01-01T12:36:50;11.65;;;2.08;;
56183;SDS011;42086;53.170;6.980;2023-01-01T12:42:40;9.15;;;1.48;;
56183;SDS011;42086;53.170;6.980;2023-01-01T12:46:13;13.45;;;1.63;;
56183;SDS011;42086;53.170;6.980;2023-01-01T12:48:25;11.02;;;1.75;;
56183;SDS011;42086;53.170;6.980;2023-01-01T12:51:22;9.63;;;1.48;;
56183;SDS011;42086;53.170;6.980;2023-01-01T12:59:30;10.82;;;1.98;;
56183;SDS011;42086;53.170;6.980;2023-01-01T13:02:01;11.82;;;2.15;;
56183;SDS011;42086;53.170;6.980;2023-01-01T13:04:36;8.23;;;1.73;;
56183;SDS011;42086;53.170;6.980;2023-01-01T13:07:05;11.57;;;2.03;;
56183;SDS011;42086;53.170;6.980;2023-01-01T13:09:37;10.10;;;1.80;;
56183;SDS011;42086;53.170;6.980;2023-01-01T13:12:09;10.63;;;2.03;;
56183;SDS011;42086;53.170;6.980;2023-01-01T13:14:38;11.38;;;1.63;;
56183;SDS011;42086;53.170;6.980;2023-01-01T13:17:16;9.50;;;1.80;;
56183;SDS011;42086;53.170;6.980;2023-01-01T13:19:56;5.13;;;1.30;;
56183;SDS011;42086;53.170;6.980;2023-01-01T13:25:15;12.25;;;2.10;;
56183;SDS011;42086;53.170;6.980;2023-01-01T13:44:09;13.07;;;2.05;;
56183;SDS011;42086;53.170;6.980;2023-01-01T13:54:51;11.88;;;2.15;;
56183;SDS011;42086;53.170;6.980;2023-01-01T14:00:24;9.70;;;1.95;;
56183;SDS011;42086;53.170;6.980;2023-01-01T14:05:33;9.93;;;2.00;;
56183;SDS011;42086;53.170;6.980;2023-01-01T14:08:02;13.15;;;2.45;;
56183;SDS011;42086;53.170;6.980;2023-01-01T14:10:29;13.20;;;2.42;;
56183;SDS011;42086;53.170;6.980;2023-01-01T14:13:18;9.98;;;2.22;;
56183;SDS011;42086;53.170;6.980;2023-01-01T14:18:17;11.88;;;2.70;;
56183;SDS011;42086;53.170;6.980;2023-01-01T14:20:46;12.55;;;2.22;;
56183;SDS011;42086;53.170;6.980;2023-01-01T14:25:59;11.88;;;2.42;;
56183;SDS011;42086;53.170;6.980;2023-01-01T14:28:46;14.20;;;2.60;;
56183;SDS011;42086;53.170;6.980;2023-01-01T14:31:16;15.13;;;2.20;;
56183;SDS011;42086;53.170;6.980;2023-01-01T14:33:44;14.15;;;2.55;;
56183;SDS011;42086;53.170;6.980;2023-01-01T14:38:46;10.50;;;1.98;;
56183;SDS011;42086;53.170;6.980;2023-01-01T14:41:26;10.68;;;2.90;;
56183;SDS011;42086;53.170;6.980;2023-01-01T14:44:05;15.25;;;2.95;;
56183;SDS011;42086;53.170;6.980;2023-01-01T14:46:43;9.52;;;2.30;;
56183;SDS011;42086;53.170;6.980;2023-01-01T14:49:13;11.70;;;2.33;;
56183;SDS011;42086;53.170;6.980;2023-01-01T14:51:43;10.88;;;2.30;;
56183;SDS011;42086;53.170;6.980;2023-01-01T14:54:18;14.27;;;2.40;;
56183;SDS011;42086;53.170;6.980;2023-01-01T14:56:47;16.10;;;2.75;;
56183;SDS011;42086;53.170;6.980;2023-01-01T14:59:28;17.73;;;2.78;;
56183;SDS011;42086;53.170;6.980;2023-01-01T15:04:38;14.60;;;3.08;;
56183;SDS011;42086;53.170;6.980;2023-01-01T15:07:04;12.38;;;3.22;;
56183;SDS011;42086;53.170;6.980;2023-01-01T15:09:31;12.45;;;3.00;;
56183;SDS011;42086;53.170;6.980;2023-01-01T15:11:57;10.00;;;2.55;;
56183;SDS011;42086;53.170;6.980;2023-01-01T15:14:37;11.68;;;2.95;;
56183;SDS011;42086;53.170;6.980;2023-01-01T15:17:08;13.10;;;2.70;;
56183;SDS011;42086;53.170;6.980;2023-01-01T15:19:36;12.50;;;3.72;;
56183;SDS011;42086;53.170;6.980;2023-01-01T15:22:24;12.48;;;2.72;;
56183;SDS011;42086;53.170;6.980;2023-01-01T15:24:52;13.70;;;3.50;;
56183;SDS011;42086;53.170;6.980;2023-01-01T15:27:23;14.63;;;2.65;;
56183;SDS011;42086;53.170;6.980;2023-01-01T15:29:57;12.20;;;2.65;;
56183;SDS011;42086;53.170;6.980;2023-01-01T15:32:25;13.02;;;2.72;;
56183;SDS011;42086;53.170;6.980;2023-01-01T15:34:54;10.18;;;2.25;;
56183;SDS011;42086;53.170;6.980;2023-01-01T15:39:59;12.18;;;3.00;;
56183;SDS011;42086;53.170;6.980;2023-01-01T15:42:46;15.88;;;3.15;;
56183;SDS011;42086;53.170;6.980;2023-01-01T15:45:37;12.23;;;2.93;;
56183;SDS011;42086;53.170;6.980;2023-01-01T15:50:34;15.07;;;3.13;;
56183;SDS011;42086;53.170;6.980;2023-01-01T15:53:09;9.98;;;2.90;;
56183;SDS011;42086;53.170;6.980;2023-01-01T15:56:00;10.63;;;3.13;;
56183;SDS011;42086;53.170;6.980;2023-01-01T15:58:33;10.70;;;2.40;;
56183;SDS011;42086;53.170;6.980;2023-01-01T16:01:02;11.07;;;2.72;;
56183;SDS011;42086;53.170;6.980;2023-01-01T16:03:30;12.00;;;2.80;;
56183;SDS011;42086;53.170;6.980;2023-01-01T16:05:58;11.23;;;3.47;;
56183;SDS011;42086;53.170;6.980;2023-01-01T16:08:24;12.10;;;2.85;;
56183;SDS011;42086;53.170;6.980;2023-01-01T16:10:50;12.93;;;2.72;;
56183;SDS011;42086;53.170;6.980;2023-01-01T16:13:16;10.80;;;3.83;;
56183;SDS011;42086;53.170;6.980;2023-01-01T16:18:15;8.15;;;2.53;;
56183;SDS011;42086;53.170;6.980;2023-01-01T16:20:42;12.23;;;3.50;;
56183;SDS011;42086;53.170;6.980;2023-01-01T16:23:08;16.50;;;4.30;;
56183;SDS011;42086;53.170;6.980;2023-01-01T16:25:34;19.30;;;4.25;;
56183;SDS011;42086;53.170;6.980;2023-01-01T16:28:00;12.00;;;2.95;;
56183;SDS011;42086;53.170;6.980;2023-01-01T16:30:28;15.43;;;3.63;;
56183;SDS011;42086;53.170;6.980;2023-01-01T16:32:54;14.85;;;3.33;;
56183;SDS011;42086;53.170;6.980;2023-01-01T16:35:20;18.63;;;3.80;;
56183;SDS011;42086;53.170;6.980;2023-01-01T16:37:46;12.27;;;3.03;;
56183;SDS011;42086;53.170;6.980;2023-01-01T16:40:11;6.78;;;2.55;;
56183;SDS011;42086;53.170;6.980;2023-01-01T16:42:37;11.95;;;2.90;;
56183;SDS011;42086;53.170;6.980;2023-01-01T16:45:03;16.58;;;3.58;;
56183;SDS011;42086;53.170;6.980;2023-01-01T16:47:30;11.43;;;3.08;;
56183;SDS011;42086;53.170;6.980;2023-01-01T16:49:55;18.17;;;3.15;;
56183;SDS011;42086;53.170;6.980;2023-01-01T16:52:21;13.98;;;3.25;;
56183;SDS011;42086;53.170;6.980;2023-01-01T16:54:47;15.98;;;3.00;;
56183;SDS011;42086;53.170;6.980;2023-01-01T16:57:13;11.00;;;3.00;;
56183;SDS011;42086;53.170;6.980;2023-01-01T16:59:38;13.10;;;2.33;;
56183;SDS011;42086;53.170;6.980;2023-01-01T17:02:04;12.25;;;2.63;;
56183;SDS011;42086;53.170;6.980;2023-01-01T17:04:32;12.65;;;2.25;;
56183;SDS011;42086;53.170;6.980;2023-01-01T17:06:59;16.17;;;3.25;;
56183;SDS011;42086;53.170;6.980;2023-01-01T17:09:25;15.00;;;3.47;;
56183;SDS011;42086;53.170;6.980;2023-01-01T17:11:51;15.25;;;2.50;;
56183;SDS011;42086;53.170;6.980;2023-01-01T17:14:16;15.20;;;2.85;;
56183;SDS011;42086;53.170;6.980;2023-01-01T17:16:42;19.33;;;3.08;;
56183;SDS011;42086;53.170;6.980;2023-01-01T17:19:09;17.80;;;3.22;;
56183;SDS011;42086;53.170;6.980;2023-01-01T17:21:36;20.60;;;3.30;;
56183;SDS011;42086;53.170;6.980;2023-01-01T17:24:02;16.50;;;3.03;;